sensor_id;sensor_type;location;lat;lon;timestamp;pressure;altitude;pressure_sealevel;temperature;humidity
32638;BME280;19045;52.268;10.506;2023-04-06T00:00:16;101061.53;;;2.92;63.62
32638;BME280;19045;52.268;10.506;2023-04-06T00:02:43;101062.13;;;2.87;64.04
32638;BME280;19045;52.268;10.506;2023-04-06T00:05:10;101057.44;;;2.89;64.22
32638;BME280;19045;52.268;10.506;2023-04-06T00:07:57;101063.53;;;2.83;64.70
32638;BME280;19045;52.268;10.506;2023-04-06T00:10:25;101051.84;;;2.78;64.58
32638;BME280;19045;52.268;10.506;2023-04-06T00:12:52;101049.75;;;2.73;65.07
32638;BME280;19045;52.268;10.506;2023-04-06T00:15:22;101051.34;;;2.68;65.24
32638;BME280;19045;52.268;10.506;2023-04-06T00:17:52;101053.56;;;2.64;65.56
32638;BME280;19045;52.268;10.506;2023-04-06T00:20:37;101050.19;;;2.55;66.39
32638;BME280;19045;52.268;10.506;2023-04-06T00:23:04;101041.81;;;2.52;66.96
32638;BME280;19045;52.268;10.506;2023-04-06T00:25:37;101040.75;;;2.46;66.80
32638;BME280;19045;52.268;10.506;2023-04-06T00:28:09;101041.38;;;2.48;67.35
32638;BME280;19045;52.268;10.506;2023-04-06T00:30:36;101042.38;;;2.47;67.32
32638;BME280;19045;52.268;10.506;2023-04-06T00:33:03;101038.09;;;2.46;67.62
32638;BME280;19045;52.268;10.506;2023-04-06T00:35:29;101033.59;;;2.47;67.66
32638;BME280;19045;52.268;10.506;2023-04-06T00:37:56;101033.78;;;2.45;68.32
32638;BME280;19045;52.268;10.506;2023-04-06T00:40:23;101039.91;;;2.46;68.21
32638;BME280;19045;52.268;10.506;2023-04-06T00:42:51;101034.75;;;2.38;68.55
32638;BME280;19045;52.268;10.506;2023-04-06T00:45:18;101035.38;;;2.40;68.53
32638;BME280;19045;52.268;10.506;2023-04-06T00:47:45;101027.78;;;2.37;68.77
32638;BME280;19045;52.268;10.506;2023-04-06T00:50:11;101026.41;;;2.41;68.57
32638;BME280;19045;52.268;10.506;2023-04-06T00:52:38;101032.72;;;2.40;68.49
32638;BME280;19045;52.268;10.506;2023-04-06T00:55:06;101028.00;;;2.35;68.78
32638;BME280;19045;52.268;10.506;2023-04-06T00:57:32;101026.78;;;2.38;68.27
32638;BME280;19045;52.268;10.506;2023-04-06T01:00:01;101019.00;;;2.36;68.28
32638;BME280;19045;52.268;10.506;2023-04-06T01:02:28;101020.22;;;2.34;68.58
32638;BME280;19045;52.268;10.506;2023-04-06T01:04:55;101019.94;;;2.29;67.99
32638;BME280;19045;52.268;10.506;2023-04-06T01:07:22;101013.66;;;2.30;68.39
32638;BME280;19045;52.268;10.506;2023-04-06T01:09:53;101011.59;;;2.25;68.33
32638;BME280;19045;52.268;10.506;2023-04-06T01:12:24;101016.06;;;2.25;68.47
32638;BME280;19045;52.268;10.506;2023-04-06T01:17:35;101006.84;;;2.21;68.20
32638;BME280;19045;52.268;10.506;2023-04-06T01:20:02;101009.88;;;2.18;68.84
32638;BME280;19045;52.268;10.506;2023-04-06T01:22:33;101010.03;;;2.16;68.48
32638;BME280;19045;52.268;10.506;2023-04-06T01:25:00;101013.13;;;2.20;68.67
32638;BME280;19045;52.268;10.506;2023-04-06T01:27:27;101000.53;;;2.22;68.37
32638;BME280;19045;52.268;10.506;2023-04-06T01:29:55;101000.91;;;2.19;68.60
32638;BME280;19045;52.268;10.506;2023-04-06T01:32:21;101011.50;;;2.19;68.16
32638;BME280;19045;52.268;10.506;2023-04-06T01:34:48;101016.81;;;2.19;68.27
32638;BME280;19045;52.268;10.506;2023-04-06T01:37:15;101009.41;;;2.14;68.52
32638;BME280;19045;52.268;10.506;2023-04-06T01:39:43;101003.50;;;2.12;68.45
32638;BME280;19045;52.268;10.506;2023-04-06T01:42:10;101005.13;;;2.13;68.48
32638;BME280;19045;52.268;10.506;2023-04-06T01:44:37;101008.53;;;2.07;69.00
32638;BME280;19045;52.268;10.506;2023-04-06T01:47:03;101012.00;;;2.07;69.19
32638;BME280;19045;52.268;10.506;2023-04-06T01:49:30;101009.16;;;2.09;69.16
32638;BME280;19045;52.268;10.506;2023-04-06T01:51:57;101003.97;;;2.01;69.62
32638;BME280;19045;52.268;10.506;2023-04-06T01:54:24;101001.78;;;2.04;69.10
32638;BME280;19045;52.268;10.506;2023-04-06T01:56:52;101003.97;;;2.01;69.98
32638;BME280;19045;52.268;10.506;2023-04-06T01:59:19;101001.94;;;2.03;69.65
32638;BME280;19045;52.268;10.506;2023-04-06T02:01:46;101007.19;;;1.96;70.27
32638;BME280;19045;52.268;10.506;2023-04-06T02:04:12;101004.16;;;1.99;69.88
32638;BME280;19045;52.268;10.506;2023-04-06T02:06:40;101007.94;;;1.90;70.43
32638;BME280;19045;52.268;10.506;2023-04-06T02:09:06;101002.47;;;1.92;70.02
32638;BME280;19045;52.268;10.506;2023-04-06T02:11:33;100995.97;;;1.94;69.72
32638;BME280;19045;52.268;10.506;2023-04-06T02:14:02;100991.66;;;1.93;69.46
32638;BME280;19045;52.268;10.506;2023-04-06T02:16:28;100995.88;;;1.88;69.86
32638;BME280;19045;52.268;10.506;2023-04-06T02:18:55;100999.34;;;1.88;69.20
32638;BME280;19045;52.268;10.506;2023-04-06T02:21:22;100992.16;;;1.82;69.56
32638;BME280;19045;52.268;10.506;2023-04-06T02:23:48;100995.91;;;1.73;70.22
32638;BME280;19045;52.268;10.506;2023-04-06T02:26:15;101000.28;;;1.81;69.69
32638;BME280;19045;52.268;10.506;2023-04-06T02:28:42;100995.16;;;1.79;70.03
32638;BME280;19045;52.268;10.506;2023-04-06T02:31:10;100993.25;;;1.73;70.41
32638;BME280;19045;52.268;10.506;2023-04-06T02:33:37;100988.69;;;1.82;69.92
32638;BME280;19045;52.268;10.506;2023-04-06T02:36:04;100995.34;;;1.78;70.30
32638;BME280;19045;52.268;10.506;2023-04-06T02:38:30;100989.22;;;1.77;69.96
32638;BME280;19045;52.268;10.506;2023-04-06T02:40:57;100989.97;;;1.71;70.34
32638;BME280;19045;52.268;10.506;2023-04-06T02:43:24;100987.72;;;1.68;70.56
32638;BME280;19045;52.268;10.506;2023-04-06T02:45:50;100982.50;;;1.75;70.24
32638;BME280;19045;52.268;10.506;2023-04-06T02:48:18;100987.25;;;1.65;70.40
32638;BME280;19045;52.268;10.506;2023-04-06T02:50:45;100983.69;;;1.72;70.49
32638;BME280;19045;52.268;10.506;2023-04-06T02:53:12;100976.91;;;1.70;70.45
32638;BME280;19045;52.268;10.506;2023-04-06T02:55:38;100982.41;;;1.68;70.08
32638;BME280;19045;52.268;10.506;2023-04-06T02:58:05;100986.81;;;1.61;70.92
32638;BME280;19045;52.268;10.506;2023-04-06T03:00:32;100984.91;;;1.55;71.15
32638;BME280;19045;52.268;10.506;2023-04-06T03:02:59;100982.25;;;1.55;71.17
32638;BME280;19045;52.268;10.506;2023-04-06T03:05:28;100981.22;;;1.56;70.91
32638;BME280;19045;52.268;10.506;2023-04-06T03:07:56;100981.97;;;1.50;71.60
32638;BME280;19045;52.268;10.506;2023-04-06T03:10:22;100979.41;;;1.56;71.36
32638;BME280;19045;52.268;10.506;2023-04-06T03:12:49;100975.84;;;1.49;71.38
32638;BME280;19045;52.268;10.506;2023-04-06T03:15:16;100979.59;;;1.55;71.50
32638;BME280;19045;52.268;10.506;2023-04-06T03:17:42;100981.97;;;1.50;71.53
32638;BME280;19045;52.268;10.506;2023-04-06T03:20:09;100978.50;;;1.49;71.71
32638;BME280;19045;52.268;10.506;2023-04-06T03:22:37;100976.50;;;1.51;71.45
32638;BME280;19045;52.268;10.506;2023-04-06T03:25:05;100982.44;;;1.39;72.21
32638;BME280;19045;52.268;10.506;2023-04-06T03:27:32;100977.63;;;1.42;71.85
32638;BME280;19045;52.268;10.506;2023-04-06T03:29:59;100980.06;;;1.44;72.12
32638;BME280;19045;52.268;10.506;2023-04-06T03:32:25;100975.59;;;1.44;71.72
32638;BME280;19045;52.268;10.506;2023-04-06T03:34:52;100979.81;;;1.39;72.18
32638;BME280;19045;52.268;10.506;2023-04-06T03:37:19;100981.63;;;1.38;72.37
32638;BME280;19045;52.268;10.506;2023-04-06T03:39:47;100981.44;;;1.40;72.13
32638;BME280;19045;52.268;10.506;2023-04-06T03:42:14;100984.91;;;1.40;72.10
32638;BME280;19045;52.268;10.506;2023-04-06T03:44:40;100984.25;;;1.53;71.63
32638;BME280;19045;52.268;10.506;2023-04-06T03:47:07;100983.34;;;1.46;71.80
32638;BME280;19045;52.268;10.506;2023-04-06T03:49:34;100977.94;;;1.39;72.19
32638;BME280;19045;52.268;10.506;2023-04-06T03:52:01;100989.38;;;1.25;73.26
32638;BME280;19045;52.268;10.506;2023-04-06T03:54:28;100983.72;;;1.28;73.07
32638;BME280;19045;52.268;10.506;2023-04-06T03:56:57;100983.28;;;1.25;72.86
32638;BME280;19045;52.268;10.506;2023-04-06T03:59:23;100982.63;;;1.23;72.99
32638;BME280;19045;52.268;10.506;2023-04-06T04:01:50;100986.91;;;1.24;72.93
32638;BME280;19045;52.268;10.506;2023-04-06T04:04:17;100990.00;;;1.27;72.09
32638;BME280;19045;52.268;10.506;2023-04-06T04:06:43;100985.81;;;1.33;72.34
32638;BME280;19045;52.268;10.506;2023-04-06T04:09:10;100987.56;;;1.26;72.34
32638;BME280;19045;52.268;10.506;2023-04-06T04:11:37;100989.47;;;1.32;72.25
32638;BME280;19045;52.268;10.506;2023-04-06T04:14:05;100989.28;;;1.33;71.99
32638;BME280;19045;52.268;10.506;2023-04-06T04:16:32;100993.31;;;1.29;72.41
32638;BME280;19045;52.268;10.506;2023-04-06T04:18:58;100993.75;;;1.33;72.24
32638;BME280;19045;52.268;10.506;2023-04-06T04:21:25;100992.00;;;1.40;71.18
32638;BME280;19045;52.268;10.506;2023-04-06T04:23:52;100990.94;;;1.34;71.78
32638;BME280;19045;52.268;10.506;2023-04-06T04:26:19;100990.94;;;1.34;71.64
32638;BME280;19045;52.268;10.506;2023-04-06T04:28:45;100995.59;;;1.32;72.09
32638;BME280;19045;52.268;10.506;2023-04-06T04:31:13;100992.88;;;1.26;72.34
32638;BME280;19045;52.268;10.506;2023-04-06T04:33:40;100998.59;;;1.29;72.00
32638;BME280;19045;52.268;10.506;2023-04-06T04:36:07;100995.75;;;1.31;72.20
32638;BME280;19045;52.268;10.506;2023-04-06T04:38:35;100995.22;;;1.21;72.38
32638;BME280;19045;52.268;10.506;2023-04-06T04:41:02;100993.84;;;1.25;72.36
32638;BME280;19045;52.268;10.506;2023-04-06T04:43:28;100994.56;;;1.33;71.97
32638;BME280;19045;52.268;10.506;2023-04-06T04:45:55;100996.59;;;1.31;71.56
32638;BME280;19045;52.268;10.506;2023-04-06T04:48:25;100998.78;;;1.28;71.85
32638;BME280;19045;52.268;10.506;2023-04-06T04:50:52;100991.66;;;1.28;71.61
32638;BME280;19045;52.268;10.506;2023-04-06T04:53:20;100995.59;;;1.32;71.83
32638;BME280;19045;52.268;10.506;2023-04-06T04:55:47;101000.69;;;1.34;71.58
32638;BME280;19045;52.268;10.506;2023-04-06T04:58:14;100992.50;;;1.29;71.75
32638;BME280;19045;52.268;10.506;2023-04-06T05:00:42;100999.41;;;1.30;71.57
32638;BME280;19045;52.268;10.506;2023-04-06T05:03:09;100991.47;;;1.30;71.60
32638;BME280;19045;52.268;10.506;2023-04-06T05:05:41;100999.78;;;1.27;71.78
32638;BME280;19045;52.268;10.506;2023-04-06T05:08:08;100990.38;;;1.39;70.58
32638;BME280;19045;52.268;10.506;2023-04-06T05:10:35;100997.75;;;1.43;70.68
32638;BME280;19045;52.268;10.506;2023-04-06T05:13:01;100996.22;;;1.34;71.44
32638;BME280;19045;52.268;10.506;2023-04-06T05:15:28;100995.31;;;1.42;70.27
32638;BME280;19045;52.268;10.506;2023-04-06T05:17:55;100995.13;;;1.58;69.54
32638;BME280;19045;52.268;10.506;2023-04-06T05:20:22;100994.19;;;1.66;68.70
32638;BME280;19045;52.268;10.506;2023-04-06T05:22:50;100994.38;;;1.64;68.02
32638;BME280;19045;52.268;10.506;2023-04-06T05:25:16;100990.72;;;1.65;67.99
32638;BME280;19045;52.268;10.506;2023-04-06T05:27:44;100984.22;;;1.82;67.74
32638;BME280;19045;52.268;10.506;2023-04-06T05:30:11;100986.94;;;2.10;66.53
32638;BME280;19045;52.268;10.506;2023-04-06T05:32:38;100981.53;;;2.39;64.63
32638;BME280;19045;52.268;10.506;2023-04-06T05:35:05;100985.38;;;2.58;63.61
32638;BME280;19045;52.268;10.506;2023-04-06T05:37:32;100989.41;;;2.82;63.44
32638;BME280;19045;52.268;10.506;2023-04-06T05:40:00;100987.41;;;3.11;61.50
32638;BME280;19045;52.268;10.506;2023-04-06T05:42:27;100985.44;;;3.27;61.03
32638;BME280;19045;52.268;10.506;2023-04-06T05:44:55;100985.75;;;3.45;59.75
32638;BME280;19045;52.268;10.506;2023-04-06T05:47:22;100985.84;;;3.64;59.03
32638;BME280;19045;52.268;10.506;2023-04-06T05:49:48;100982.03;;;3.80;58.31
32638;BME280;19045;52.268;10.506;2023-04-06T05:52:15;100990.47;;;3.97;57.11
32638;BME280;19045;52.268;10.506;2023-04-06T05:54:42;100994.78;;;4.11;56.81
32638;BME280;19045;52.268;10.506;2023-04-06T05:57:10;100992.38;;;4.23;56.16
32638;BME280;19045;52.268;10.506;2023-04-06T05:59:37;100974.75;;;4.08;56.16
32638;BME280;19045;52.268;10.506;2023-04-06T06:02:03;100984.19;;;4.24;56.04
32638;BME280;19045;52.268;10.506;2023-04-06T06:04:30;100986.47;;;4.40;56.04
32638;BME280;19045;52.268;10.506;2023-04-06T06:06:57;100983.41;;;4.56;54.62
32638;BME280;19045;52.268;10.506;2023-04-06T06:09:24;100979.50;;;4.72;54.02
32638;BME280;19045;52.268;10.506;2023-04-06T06:11:51;100986.06;;;4.83;53.55
32638;BME280;19045;52.268;10.506;2023-04-06T06:14:19;100980.91;;;5.07;52.49
32638;BME280;19045;52.268;10.506;2023-04-06T06:16:47;100983.97;;;5.17;52.48
32638;BME280;19045;52.268;10.506;2023-04-06T06:19:14;100991.16;;;5.17;52.19
32638;BME280;19045;52.268;10.506;2023-04-06T06:21:40;100980.69;;;5.15;51.77
32638;BME280;19045;52.268;10.506;2023-04-06T06:24:07;100985.38;;;5.40;51.22
32638;BME280;19045;52.268;10.506;2023-04-06T06:26:34;100979.56;;;5.56;50.97
32638;BME280;19045;52.268;10.506;2023-04-06T06:29:02;100980.38;;;5.63;50.67
32638;BME280;19045;52.268;10.506;2023-04-06T06:31:31;100979.88;;;5.79;50.27
32638;BME280;19045;52.268;10.506;2023-04-06T06:33:58;100981.63;;;6.05;49.93
32638;BME280;19045;52.268;10.506;2023-04-06T06:36:25;100975.78;;;6.21;49.75
32638;BME280;19045;52.268;10.506;2023-04-06T06:38:52;100977.38;;;6.29;49.20
32638;BME280;19045;52.268;10.506;2023-04-06T06:41:19;100980.19;;;6.65;48.02
32638;BME280;19045;52.268;10.506;2023-04-06T06:43:46;100976.50;;;6.66;47.72
32638;BME280;19045;52.268;10.506;2023-04-06T06:46:12;100987.88;;;6.55;48.34
32638;BME280;19045;52.268;10.506;2023-04-06T06:48:40;100996.59;;;6.68;47.93
32638;BME280;19045;52.268;10.506;2023-04-06T06:51:07;100994.25;;;6.79;47.61
32638;BME280;19045;52.268;10.506;2023-04-06T06:53:34;100984.59;;;6.78;47.00
32638;BME280;19045;52.268;10.506;2023-04-06T06:56:01;100988.47;;;6.82;47.04
32638;BME280;19045;52.268;10.506;2023-04-06T06:58:28;100991.31;;;6.62;47.26
32638;BME280;19045;52.268;10.506;2023-04-06T07:00:56;100983.44;;;6.67;46.73
32638;BME280;19045;52.268;10.506;2023-04-06T07:03:23;100979.91;;;6.73;46.24
32638;BME280;19045;52.268;10.506;2023-04-06T07:05:51;100982.06;;;6.89;46.00
32638;BME280;19045;52.268;10.506;2023-04-06T07:08:19;100987.88;;;7.22;45.44
32638;BME280;19045;52.268;10.506;2023-04-06T07:10:46;100980.78;;;7.35;44.61
32638;BME280;19045;52.268;10.506;2023-04-06T07:13:12;100979.13;;;7.34;45.11
32638;BME280;19045;52.268;10.506;2023-04-06T07:15:43;100985.50;;;7.33;44.49
32638;BME280;19045;52.268;10.506;2023-04-06T07:18:10;100984.34;;;7.28;44.54
32638;BME280;19045;52.268;10.506;2023-04-06T07:20:36;100981.81;;;7.52;44.03
32638;BME280;19045;52.268;10.506;2023-04-06T07:23:04;100996.94;;;7.40;44.20
32638;BME280;19045;52.268;10.506;2023-04-06T07:25:31;100986.50;;;7.38;44.66
32638;BME280;19045;52.268;10.506;2023-04-06T07:27:58;100989.44;;;7.66;44.24
32638;BME280;19045;52.268;10.506;2023-04-06T07:30:25;100988.28;;;7.92;44.13
32638;BME280;19045;52.268;10.506;2023-04-06T07:32:53;100987.44;;;8.10;42.57
32638;BME280;19045;52.268;10.506;2023-04-06T07:35:20;100995.16;;;7.70;43.70
32638;BME280;19045;52.268;10.506;2023-04-06T07:37:47;100986.81;;;7.96;43.38
32638;BME280;19045;52.268;10.506;2023-04-06T07:40:15;100983.47;;;8.30;42.84
32638;BME280;19045;52.268;10.506;2023-04-06T07:42:43;100977.28;;;8.71;42.19
32638;BME280;19045;52.268;10.506;2023-04-06T07:45:10;100973.00;;;9.17;41.14
32638;BME280;19045;52.268;10.506;2023-04-06T07:47:37;100979.16;;;8.94;41.79
32638;BME280;19045;52.268;10.506;2023-04-06T07:50:04;100971.56;;;9.26;41.10
32638;BME280;19045;52.268;10.506;2023-04-06T07:52:31;100979.84;;;9.36;40.71
32638;BME280;19045;52.268;10.506;2023-04-06T07:54:58;100977.84;;;9.31;40.86
32638;BME280;19045;52.268;10.506;2023-04-06T07:57:26;100974.25;;;9.38;41.25
32638;BME280;19045;52.268;10.506;2023-04-06T07:59:53;100964.06;;;9.63;40.46
32638;BME280;19045;52.268;10.506;2023-04-06T08:02:20;100968.78;;;9.84;39.31
32638;BME280;19045;52.268;10.506;2023-04-06T08:04:47;100974.78;;;9.63;39.70
32638;BME280;19045;52.268;10.506;2023-04-06T08:07:14;100967.00;;;9.50;39.34
32638;BME280;19045;52.268;10.506;2023-04-06T08:09:40;100973.63;;;9.59;38.85
32638;BME280;19045;52.268;10.506;2023-04-06T08:12:07;100968.44;;;9.80;38.98
32638;BME280;19045;52.268;10.506;2023-04-06T08:14:35;100968.75;;;10.24;38.73
32638;BME280;19045;52.268;10.506;2023-04-06T08:17:02;100975.38;;;9.93;38.12
32638;BME280;19045;52.268;10.506;2023-04-06T08:19:29;100963.28;;;10.19;38.50
32638;BME280;19045;52.268;10.506;2023-04-06T08:21:56;100968.63;;;10.47;38.00
32638;BME280;19045;52.268;10.506;2023-04-06T08:24:22;100961.28;;;10.43;38.18
32638;BME280;19045;52.268;10.506;2023-04-06T08:26:49;100968.94;;;10.84;37.70
32638;BME280;19045;52.268;10.506;2023-04-06T08:29:16;100964.09;;;11.19;37.90
32638;BME280;19045;52.268;10.506;2023-04-06T08:31:44;100964.31;;;11.56;37.43
32638;BME280;19045;52.268;10.506;2023-04-06T08:34:11;100974.72;;;11.69;36.60
32638;BME280;19045;52.268;10.506;2023-04-06T08:36:38;100969.38;;;11.14;36.53
32638;BME280;19045;52.268;10.506;2023-04-06T08:39:04;100972.81;;;11.48;36.03
32638;BME280;19045;52.268;10.506;2023-04-06T08:41:31;100974.50;;;11.32;36.70
32638;BME280;19045;52.268;10.506;2023-04-06T08:43:59;100965.25;;;11.67;35.64
32638;BME280;19045;52.268;10.506;2023-04-06T08:46:29;100964.97;;;11.85;35.91
32638;BME280;19045;52.268;10.506;2023-04-06T08:48:58;100963.66;;;12.14;35.11
32638;BME280;19045;52.268;10.506;2023-04-06T08:51:26;100972.91;;;12.23;34.83
32638;BME280;19045;52.268;10.506;2023-04-06T08:53:54;100968.63;;;12.01;35.70
32638;BME280;19045;52.268;10.506;2023-04-06T08:56:21;100960.34;;;12.07;35.56
32638;BME280;19045;52.268;10.506;2023-04-06T08:58:48;100969.31;;;13.55;33.81
32638;BME280;19045;52.268;10.506;2023-04-06T09:01:18;100967.97;;;14.40;32.40
32638;BME280;19045;52.268;10.506;2023-04-06T09:03:48;100979.03;;;14.38;31.85
32638;BME280;19045;52.268;10.506;2023-04-06T09:06:17;100966.34;;;14.54;32.26
32638;BME280;19045;52.268;10.506;2023-04-06T09:08:45;100968.50;;;15.08;31.54
32638;BME280;19045;52.268;10.506;2023-04-06T09:11:11;100972.41;;;16.20;30.62
32638;BME280;19045;52.268;10.506;2023-04-06T09:13:46;100973.03;;;16.07;28.78
32638;BME280;19045;52.268;10.506;2023-04-06T09:16:13;100966.59;;;16.36;29.58
32638;BME280;19045;52.268;10.506;2023-04-06T09:18:40;100961.94;;;17.57;28.23
32638;BME280;19045;52.268;10.506;2023-04-06T09:21:08;100970.16;;;17.94;27.76
32638;BME280;19045;52.268;10.506;2023-04-06T09:23:37;100965.81;;;18.49;26.67
32638;BME280;19045;52.268;10.506;2023-04-06T09:26:09;100965.72;;;18.73;26.73
32638;BME280;19045;52.268;10.506;2023-04-06T09:28:47;100963.97;;;19.42;26.64
32638;BME280;19045;52.268;10.506;2023-04-06T09:31:15;100959.28;;;19.83;26.02
32638;BME280;19045;52.268;10.506;2023-04-06T09:33:45;100962.03;;;19.70;25.50
32638;BME280;19045;52.268;10.506;2023-04-06T09:36:12;100960.03;;;19.62;26.37
32638;BME280;19045;52.268;10.506;2023-04-06T09:38:53;100949.97;;;20.78;25.10
32638;BME280;19045;52.268;10.506;2023-04-06T09:41:22;100948.22;;;22.17;22.99
32638;BME280;19045;52.268;10.506;2023-04-06T09:43:50;100944.97;;;23.68;21.65
32638;BME280;19045;52.268;10.506;2023-04-06T09:46:17;100941.16;;;23.14;22.12
32638;BME280;19045;52.268;10.506;2023-04-06T09:48:47;100943.63;;;23.75;21.47
32638;BME280;19045;52.268;10.506;2023-04-06T09:51:15;100938.59;;;24.27;20.62
32638;BME280;19045;52.268;10.506;2023-04-06T09:53:44;100938.09;;;24.78;20.84
32638;BME280;19045;52.268;10.506;2023-04-06T09:56:20;100937.44;;;26.02;19.60
32638;BME280;19045;52.268;10.506;2023-04-06T09:58:50;100937.97;;;27.03;19.39
32638;BME280;19045;52.268;10.506;2023-04-06T10:01:20;100931.13;;;27.13;19.24
32638;BME280;19045;52.268;10.506;2023-04-06T10:03:56;100928.69;;;27.58;17.92
32638;BME280;19045;52.268;10.506;2023-04-06T10:06:33;100926.38;;;26.82;18.72
32638;BME280;19045;52.268;10.506;2023-04-06T10:09:04;100923.38;;;27.85;18.20
32638;BME280;19045;52.268;10.506;2023-04-06T10:11:34;100928.28;;;29.33;17.38
32638;BME280;19045;52.268;10.506;2023-04-06T10:14:01;100926.66;;;26.65;18.81
32638;BME280;19045;52.268;10.506;2023-04-06T10:16:28;100915.34;;;26.82;18.75
32638;BME280;19045;52.268;10.506;2023-04-06T10:19:00;100921.09;;;24.10;20.57
32638;BME280;19045;52.268;10.506;2023-04-06T10:21:29;100928.25;;;26.10;19.48
32638;BME280;19045;52.268;10.506;2023-04-06T10:23:59;100924.00;;;27.28;18.70
32638;BME280;19045;52.268;10.506;2023-04-06T10:26:27;100936.03;;;24.75;19.73
32638;BME280;19045;52.268;10.506;2023-04-06T10:29:02;100924.22;;;25.19;19.26
32638;BME280;19045;52.268;10.506;2023-04-06T10:31:29;100918.56;;;27.47;18.41
32638;BME280;19045;52.268;10.506;2023-04-06T10:33:57;100910.72;;;28.60;17.96
32638;BME280;19045;52.268;10.506;2023-04-06T10:36:25;100915.66;;;29.61;16.62
32638;BME280;19045;52.268;10.506;2023-04-06T10:38:57;100906.25;;;30.59;16.05
32638;BME280;19045;52.268;10.506;2023-04-06T10:41:32;100912.44;;;30.15;15.91
32638;BME280;19045;52.268;10.506;2023-04-06T10:44:01;100912.94;;;27.59;17.44
32638;BME280;19045;52.268;10.506;2023-04-06T10:46:29;100909.47;;;27.15;17.87
32638;BME280;19045;52.268;10.506;2023-04-06T10:48:57;100908.38;;;29.04;16.62
32638;BME280;19045;52.268;10.506;2023-04-06T10:51:26;100903.00;;;28.89;17.21
32638;BME280;19045;52.268;10.506;2023-04-06T10:53:54;100899.00;;;28.86;17.40
32638;BME280;19045;52.268;10.506;2023-04-06T10:56:23;100892.81;;;31.05;16.09
32638;BME280;19045;52.268;10.506;2023-04-06T10:58:53;100877.97;;;31.34;15.18
32638;BME280;19045;52.268;10.506;2023-04-06T11:01:23;100887.88;;;30.14;16.05
32638;BME280;19045;52.268;10.506;2023-04-06T11:03:53;100881.81;;;30.05;16.21
32638;BME280;19045;52.268;10.506;2023-04-06T11:06:22;100878.59;;;31.68;15.07
32638;BME280;19045;52.268;10.506;2023-04-06T11:08:49;100877.19;;;31.37;15.52
32638;BME280;19045;52.268;10.506;2023-04-06T11:11:17;100879.00;;;30.35;15.61
32638;BME280;19045;52.268;10.506;2023-04-06T11:13:46;100890.34;;;29.63;16.16
32638;BME280;19045;52.268;10.506;2023-04-06T11:16:14;100870.69;;;30.35;15.56
32638;BME280;19045;52.268;10.506;2023-04-06T11:18:50;100871.97;;;30.41;15.70
32638;BME280;19045;52.268;10.506;2023-04-06T11:21:17;100872.81;;;30.85;15.28
32638;BME280;19045;52.268;10.506;2023-04-06T11:23:44;100866.59;;;32.47;14.68
32638;BME280;19045;52.268;10.506;2023-04-06T11:26:11;100874.41;;;31.37;14.77
32638;BME280;19045;52.268;10.506;2023-04-06T11:28:40;100875.22;;;30.90;15.20
32638;BME280;19045;52.268;10.506;2023-04-06T11:31:09;100886.69;;;27.49;17.05
32638;BME280;19045;52.268;10.506;2023-04-06T11:33:36;100870.22;;;28.07;16.72
32638;BME280;19045;52.268;10.506;2023-04-06T11:36:06;100871.38;;;28.67;16.71
32638;BME280;19045;52.268;10.506;2023-04-06T11:38:33;100865.38;;;29.86;16.12
32638;BME280;19045;52.268;10.506;2023-04-06T11:41:01;100865.47;;;30.30;15.51
32638;BME280;19045;52.268;10.506;2023-04-06T11:43:28;100849.69;;;27.19;16.76
32638;BME280;19045;52.268;10.506;2023-04-06T11:46:00;100847.13;;;29.29;16.34
32638;BME280;19045;52.268;10.506;2023-04-06T11:48:27;100848.47;;;26.85;17.61
32638;BME280;19045;52.268;10.506;2023-04-06T11:50:57;100860.22;;;26.39;18.19
32638;BME280;19045;52.268;10.506;2023-04-06T11:53:27;100844.44;;;26.51;18.06
32638;BME280;19045;52.268;10.506;2023-04-06T11:55:55;100851.91;;;25.07;19.19
32638;BME280;19045;52.268;10.506;2023-04-06T11:58:22;100851.31;;;25.62;18.53
32638;BME280;19045;52.268;10.506;2023-04-06T12:00:49;100847.44;;;25.39;19.19
32638;BME280;19045;52.268;10.506;2023-04-06T12:03:15;100840.22;;;25.22;19.17
32638;BME280;19045;52.268;10.506;2023-04-06T12:05:43;100849.06;;;24.13;20.24
32638;BME280;19045;52.268;10.506;2023-04-06T12:08:10;100842.16;;;23.87;20.32
32638;BME280;19045;52.268;10.506;2023-04-06T12:10:38;100840.00;;;20.95;23.38
32638;BME280;19045;52.268;10.506;2023-04-06T12:13:05;100851.25;;;20.62;23.59
32638;BME280;19045;52.268;10.506;2023-04-06T12:15:32;100844.81;;;19.70;24.62
32638;BME280;19045;52.268;10.506;2023-04-06T12:17:59;100835.06;;;19.91;24.76
32638;BME280;19045;52.268;10.506;2023-04-06T12:20:25;100827.50;;;20.32;24.51
32638;BME280;19045;52.268;10.506;2023-04-06T12:22:53;100839.47;;;19.65;24.46
32638;BME280;19045;52.268;10.506;2023-04-06T12:25:20;100839.81;;;18.68;24.94
32638;BME280;19045;52.268;10.506;2023-04-06T12:27:48;100839.94;;;18.44;25.32
32638;BME280;19045;52.268;10.506;2023-04-06T12:30:15;100831.09;;;17.87;25.81
32638;BME280;19045;52.268;10.506;2023-04-06T12:32:42;100826.97;;;17.90;25.66
32638;BME280;19045;52.268;10.506;2023-04-06T12:35:09;100828.16;;;17.84;25.92
32638;BME280;19045;52.268;10.506;2023-04-06T12:37:37;100834.31;;;16.62;27.11
32638;BME280;19045;52.268;10.506;2023-04-06T12:40:05;100828.84;;;16.91;26.53
32638;BME280;19045;52.268;10.506;2023-04-06T12:42:32;100818.81;;;17.52;26.52
32638;BME280;19045;52.268;10.506;2023-04-06T12:45:00;100821.41;;;18.32;25.39
32638;BME280;19045;52.268;10.506;2023-04-06T12:47:27;100818.06;;;18.95;25.58
32638;BME280;19045;52.268;10.506;2023-04-06T12:49:54;100813.84;;;18.89;25.80